createdAt,value
2022-09-18T00:09:18.123Z,10.58
2022-09-18T00:19:39.582Z,10.65
2022-09-18T00:30:01.045Z,10.68
2022-09-18T00:40:22.559Z,10.59
2022-09-18T00:50:44.242Z,10.65
2022-09-18T01:01:07.568Z,10.56
2022-09-18T01:11:32.114Z,10.33
2022-09-18T01:22:18.146Z,10.15
2022-09-18T01:32:45.647Z,10.23
2022-09-18T01:43:11.042Z,10.34
2022-09-18T01:53:43.901Z,10.17
2022-09-18T02:04:15.072Z,9.99
2022-09-18T02:14:46.631Z,9.97
2022-09-18T02:25:11.722Z,9.91
2022-09-18T02:35:43.073Z,9.94
2022-09-18T02:46:19.794Z,9.93
2022-09-18T02:56:56.093Z,10.10
2022-09-18T03:07:19.933Z,10.21
2022-09-18T03:17:41.379Z,10.21
2022-09-18T03:28:03.040Z,10.25
2022-09-18T03:38:24.678Z,10.19
2022-09-18T03:48:46.121Z,10.11
2022-09-18T03:59:07.570Z,10.00
2022-09-18T04:09:29.081Z,9.94
2022-09-18T04:19:53.644Z,9.81
2022-09-18T04:30:15.641Z,9.85
2022-09-18T04:40:37.246Z,9.88
2022-09-18T04:50:58.751Z,9.91
2022-09-18T05:01:20.284Z,9.99
2022-09-18T05:11:41.816Z,9.95
2022-09-18T05:22:03.394Z,9.88
2022-09-18T05:32:24.868Z,10.02
2022-09-18T05:42:47.816Z,10.18
2022-09-18T05:53:14.799Z,10.30
2022-09-18T06:03:36.384Z,10.42
2022-09-18T06:13:58.157Z,10.62
2022-09-18T06:24:19.613Z,10.75
2022-09-18T06:34:41.105Z,10.94
2022-09-18T06:45:02.582Z,11.11
2022-09-18T06:55:24.030Z,11.02
2022-09-18T07:05:45.692Z,11.13
2022-09-18T07:16:07.408Z,11.30
2022-09-18T07:26:28.782Z,11.46
2022-09-18T07:36:50.511Z,11.56
2022-09-18T07:47:12.638Z,11.88
2022-09-18T07:57:34.085Z,11.79
2022-09-18T08:07:55.539Z,11.76
2022-09-18T08:18:17.469Z,12.20
2022-09-18T08:28:38.951Z,12.32
2022-09-18T08:39:00.759Z,12.50
2022-09-18T08:49:37.474Z,12.44
2022-09-18T09:00:01.785Z,12.36
2022-09-18T09:10:45.320Z,12.45
2022-09-18T09:21:22.327Z,12.55
2022-09-18T09:31:48.884Z,12.64
2022-09-18T09:42:21.899Z,12.88
2022-09-18T09:52:46.673Z,13.69
2022-09-18T10:03:45.892Z,12.93
2022-09-18T10:14:17.389Z,12.45
2022-09-18T10:24:50.739Z,12.21
2022-09-18T10:35:42.279Z,12.46
2022-09-18T10:46:03.800Z,12.65
2022-09-18T10:56:25.274Z,13.15
2022-09-18T11:06:46.817Z,13.07
2022-09-18T11:17:21.962Z,12.58
2022-09-18T11:27:48.442Z,12.65
2022-09-18T11:38:14.354Z,12.61
2022-09-18T11:48:44.356Z,12.82
2022-09-18T11:59:24.798Z,12.67
2022-09-18T12:10:06.308Z,13.36
2022-09-18T12:20:47.327Z,13.53
2022-09-18T12:31:37.863Z,13.51
2022-09-18T12:42:14.766Z,13.16
2022-09-18T12:53:08.564Z,13.58
2022-09-18T13:03:36.857Z,14.04
2022-09-18T13:14:21.816Z,14.09
2022-09-18T13:24:48.379Z,14.57
2022-09-18T13:35:12.873Z,14.96
2022-09-18T13:45:38.666Z,15.36
2022-09-18T13:56:00.477Z,14.85
2022-09-18T14:06:37.258Z,15.17
2022-09-18T14:17:14.355Z,14.91
2022-09-18T14:27:44.472Z,15.14
2022-09-18T14:38:28.783Z,15.08
2022-09-18T14:48:50.529Z,15.03
2022-09-18T14:59:17.112Z,15.25
2022-09-18T15:09:39.491Z,14.76
2022-09-18T15:20:16.209Z,14.94
2022-09-18T15:30:38.232Z,14.05
2022-09-18T15:41:21.690Z,12.82
2022-09-18T15:51:43.338Z,12.37
2022-09-18T16:02:27.643Z,12.29
2022-09-18T16:12:50.234Z,12.22
2022-09-18T16:23:24.611Z,12.49
2022-09-18T16:33:57.077Z,12.34
2022-09-18T16:44:19.001Z,12.35
2022-09-18T16:54:40.532Z,12.28
2022-09-18T17:05:02.820Z,12.28
2022-09-18T17:15:24.455Z,12.15
2022-09-18T17:25:46.048Z,12.10
2022-09-18T17:36:09.698Z,11.93
2022-09-18T17:46:31.423Z,12.03
2022-09-18T17:56:52.919Z,11.91
2022-09-18T18:07:14.840Z,11.82
2022-09-18T18:17:36.363Z,11.87
2022-09-18T18:27:57.913Z,11.86
2022-09-18T18:38:20.506Z,11.67
2022-09-18T18:48:43.723Z,11.65
2022-09-18T18:59:07.225Z,11.49
2022-09-18T19:09:30.446Z,11.40
2022-09-18T19:19:53.039Z,11.53
2022-09-18T19:30:14.657Z,11.46
2022-09-18T19:40:38.800Z,11.37
2022-09-18T19:51:00.366Z,11.24
2022-09-18T20:01:21.834Z,11.23
2022-09-18T20:11:47.602Z,11.34
2022-09-18T20:22:09.723Z,11.32
2022-09-18T20:32:31.303Z,11.29
2022-09-18T20:42:53.610Z,11.30
2022-09-18T20:53:15.061Z,11.19
2022-09-18T21:03:37.552Z,11.15
2022-09-18T21:14:03.484Z,11.13
2022-09-18T21:24:26.045Z,11.04
2022-09-18T21:34:47.568Z,11.11
2022-09-18T21:45:09.441Z,11.07
2022-09-18T21:55:37.526Z,11.04
2022-09-18T22:06:00.212Z,10.90
2022-09-18T22:16:26.228Z,10.80
2022-09-18T22:26:56.943Z,10.78
2022-09-18T22:37:18.446Z,10.89
2022-09-18T22:47:40.030Z,10.74
2022-09-18T22:58:04.520Z,10.79
2022-09-18T23:08:25.988Z,10.84
2022-09-18T23:18:55.436Z,10.84
2022-09-18T23:29:20.893Z,10.82
2022-09-18T23:39:42.403Z,10.83
2022-09-18T23:50:04.278Z,10.84
